createdAt,value
2023-01-30T00:01:29.887Z,98722.55
2023-01-30T00:03:58.535Z,98721.39
2023-01-30T00:06:27.055Z,98722.94
2023-01-30T00:08:56.236Z,98724.23
2023-01-30T00:11:28.845Z,98720.05
2023-01-30T00:13:59.149Z,98723.50
2023-01-30T00:16:30.619Z,98722.41
2023-01-30T00:19:00.983Z,98725.70
2023-01-30T00:21:34.288Z,98726.55
2023-01-30T00:24:02.495Z,98723.46
2023-01-30T00:26:30.667Z,98723.76
2023-01-30T00:28:58.932Z,98728.64
2023-01-30T00:31:28.388Z,98734.33
2023-01-30T00:33:56.771Z,98730.10
2023-01-30T00:36:25.067Z,98732.33
2023-01-30T00:38:54.412Z,98732.07
2023-01-30T00:41:22.948Z,98730.27
2023-01-30T00:44:29.673Z,98726.31
2023-01-30T00:47:05.408Z,98730.30
2023-01-30T00:49:34.009Z,98735.29
2023-01-30T00:52:02.325Z,98735.33
2023-01-30T00:54:31.126Z,98734.42
2023-01-30T00:57:02.087Z,98731.93
2023-01-30T00:59:30.215Z,98731.73
2023-01-30T01:01:58.397Z,98734.36
2023-01-30T01:04:26.617Z,98729.71
2023-01-30T01:06:55.048Z,98726.98
2023-01-30T01:09:23.145Z,98725.95
2023-01-30T01:11:51.252Z,98721.95
2023-01-30T01:14:19.467Z,98716.45
2023-01-30T01:16:48.397Z,98714.02
2023-01-30T01:19:16.716Z,98718.80
2023-01-30T01:21:45.072Z,98720.55
2023-01-30T01:24:15.293Z,98719.65
2023-01-30T01:26:43.990Z,98717.85
2023-01-30T01:29:15.379Z,98718.98
2023-01-30T01:31:44.369Z,98719.05
2023-01-30T01:34:13.148Z,98720.40
2023-01-30T01:36:53.973Z,98714.63
2023-01-30T01:39:23.561Z,98715.00
2023-01-30T01:41:52.080Z,98713.28
2023-01-30T01:44:20.314Z,98713.45
2023-01-30T01:47:00.132Z,98711.00
2023-01-30T01:49:35.009Z,98713.67
2023-01-30T01:52:15.996Z,98708.39
2023-01-30T01:54:52.701Z,98708.19
2023-01-30T01:57:28.980Z,98707.11
2023-01-30T02:00:00.680Z,98703.39
2023-01-30T02:02:29.675Z,98706.06
2023-01-30T02:05:03.979Z,98702.10
2023-01-30T02:07:45.579Z,98704.39
2023-01-30T02:10:24.718Z,98703.50
2023-01-30T02:12:55.922Z,98699.57
2023-01-30T02:15:24.447Z,98696.55
2023-01-30T02:17:52.624Z,98694.88
2023-01-30T02:20:37.336Z,98693.45
2023-01-30T02:23:37.852Z,98689.59
2023-01-30T02:26:25.452Z,98686.60
2023-01-30T02:29:08.438Z,98683.79
2023-01-30T02:31:51.229Z,98687.55
2023-01-30T02:34:25.540Z,98696.89
2023-01-30T02:37:22.824Z,98693.16
2023-01-30T02:40:02.964Z,98693.63
2023-01-30T02:42:38.098Z,98692.95
2023-01-30T02:45:27.988Z,98699.13
2023-01-30T02:48:07.947Z,98699.25
2023-01-30T02:50:43.511Z,98697.81
2023-01-30T02:53:12.698Z,98688.45
2023-01-30T02:55:43.300Z,98682.30
2023-01-30T02:58:14.839Z,98686.67
2023-01-30T03:00:55.357Z,98689.59
2023-01-30T03:04:18.680Z,98686.59
2023-01-30T03:07:05.222Z,98685.95
2023-01-30T03:10:17.807Z,98683.27
2023-01-30T03:12:59.255Z,98685.69
2023-01-30T03:16:00.497Z,98687.95
2023-01-30T03:18:29.054Z,98689.31
2023-01-30T03:21:03.684Z,98688.17
2023-01-30T03:23:32.289Z,98691.27
2023-01-30T03:26:01.045Z,98685.65
2023-01-30T03:28:30.100Z,98682.08
2023-01-30T03:30:58.794Z,98675.13
2023-01-30T03:33:27.269Z,98665.81
2023-01-30T03:35:56.864Z,98666.82
2023-01-30T03:38:25.248Z,98666.07
2023-01-30T03:40:53.598Z,98663.83
2023-01-30T03:43:22.123Z,98663.84
2023-01-30T03:45:50.401Z,98669.84
2023-01-30T03:48:20.249Z,98673.98
2023-01-30T03:50:49.080Z,98673.17
2023-01-30T03:53:17.483Z,98668.41
2023-01-30T03:55:47.061Z,98676.11
2023-01-30T03:58:15.348Z,98676.09
2023-01-30T04:00:43.708Z,98674.96
2023-01-30T04:03:12.066Z,98674.28
2023-01-30T04:05:45.986Z,98676.97
2023-01-30T04:08:15.995Z,98675.59
2023-01-30T04:10:44.388Z,98672.95
2023-01-30T04:13:15.859Z,98671.52
2023-01-30T04:15:44.162Z,98672.20
2023-01-30T04:18:30.758Z,98671.27
2023-01-30T04:21:25.388Z,98668.09
2023-01-30T04:23:55.880Z,98667.21
2023-01-30T04:26:24.802Z,98660.11
2023-01-30T04:28:53.244Z,98662.71
2023-01-30T04:31:21.575Z,98657.59
2023-01-30T04:34:04.635Z,98657.73
2023-01-30T04:36:32.989Z,98655.75
2023-01-30T04:39:01.454Z,98657.56
2023-01-30T04:41:52.017Z,98658.83
2023-01-30T04:44:21.006Z,98656.92
2023-01-30T04:47:09.677Z,98653.09
2023-01-30T04:49:37.918Z,98656.14
2023-01-30T04:52:07.193Z,98658.48
2023-01-30T04:54:38.873Z,98659.11
2023-01-30T04:57:07.142Z,98654.34
2023-01-30T04:59:35.626Z,98653.73
2023-01-30T05:02:05.604Z,98654.33
2023-01-30T05:04:33.940Z,98656.48
2023-01-30T05:07:02.008Z,98649.80
2023-01-30T05:09:30.166Z,98651.45
2023-01-30T05:11:58.483Z,98649.84
2023-01-30T05:14:27.852Z,98647.80
2023-01-30T05:16:56.156Z,98646.31
2023-01-30T05:19:30.319Z,98644.21
2023-01-30T05:21:58.582Z,98644.77
2023-01-30T05:24:28.049Z,98643.18
2023-01-30T05:26:56.426Z,98646.09
2023-01-30T05:29:24.636Z,98647.36
2023-01-30T05:31:52.841Z,98649.54
2023-01-30T05:34:23.516Z,98652.66
2023-01-30T05:36:54.741Z,98653.02
2023-01-30T05:39:25.720Z,98660.70
2023-01-30T05:41:55.824Z,98657.08
2023-01-30T05:44:24.403Z,98655.00
2023-01-30T05:47:13.455Z,98654.02
2023-01-30T05:49:43.047Z,98661.66
2023-01-30T05:52:13.387Z,98663.05
2023-01-30T05:54:45.514Z,98663.66
2023-01-30T05:57:34.115Z,98667.66
2023-01-30T06:00:04.022Z,98663.67
2023-01-30T06:02:41.554Z,98662.41
2023-01-30T06:05:13.547Z,98661.54
2023-01-30T06:07:46.161Z,98655.79
2023-01-30T06:10:25.389Z,98657.15
2023-01-30T06:13:19.593Z,98654.48
2023-01-30T06:15:56.388Z,98653.15
2023-01-30T06:18:31.730Z,98656.41
2023-01-30T06:21:01.114Z,98654.18
2023-01-30T06:23:29.412Z,98655.07
2023-01-30T06:26:08.839Z,98650.38
2023-01-30T06:28:42.211Z,98652.06
2023-01-30T06:31:12.420Z,98653.63
2023-01-30T06:33:41.176Z,98651.98
2023-01-30T06:36:14.426Z,98646.30
2023-01-30T06:38:45.623Z,98643.39
2023-01-30T06:41:14.087Z,98645.20
2023-01-30T06:43:45.709Z,98645.70
2023-01-30T06:46:15.213Z,98643.80
2023-01-30T06:48:52.103Z,98639.08
2023-01-30T06:51:30.258Z,98641.70
2023-01-30T06:53:59.654Z,98644.52
2023-01-30T06:56:29.045Z,98645.56
2023-01-30T06:59:03.409Z,98645.00
2023-01-30T07:01:33.332Z,98646.14
2023-01-30T07:04:03.016Z,98642.20
2023-01-30T07:07:24.062Z,98638.96
2023-01-30T07:10:10.363Z,98637.15
2023-01-30T07:12:39.682Z,98637.27
2023-01-30T07:15:12.812Z,98636.75
2023-01-30T07:17:42.373Z,98638.85
2023-01-30T07:20:17.718Z,98635.88
2023-01-30T07:22:56.646Z,98634.63
2023-01-30T07:25:33.130Z,98638.14
2023-01-30T07:29:10.846Z,98636.58
2023-01-30T07:40:37.957Z,98629.73
2023-01-30T07:43:10.281Z,98627.15
2023-01-30T07:46:13.652Z,98627.71
2023-01-30T07:48:45.195Z,98627.54
2023-01-30T07:51:25.450Z,98627.03
2023-01-30T07:53:55.972Z,98622.09
2023-01-30T07:56:24.805Z,98622.41
2023-01-30T07:58:55.885Z,98617.50
2023-01-30T08:01:58.399Z,98619.08
2023-01-30T08:04:27.243Z,98618.50
2023-01-30T08:06:56.827Z,98616.09
2023-01-30T08:09:27.848Z,98615.14
2023-01-30T08:11:56.380Z,98614.94
2023-01-30T08:14:25.729Z,98615.68
2023-01-30T08:16:54.280Z,98617.38
2023-01-30T08:19:22.655Z,98617.25
2023-01-30T08:21:55.210Z,98613.73
2023-01-30T08:24:23.630Z,98610.92
2023-01-30T08:26:51.862Z,98609.13
2023-01-30T08:29:20.353Z,98606.98
2023-01-30T08:32:05.079Z,98609.21
2023-01-30T08:35:06.205Z,98607.95
2023-01-30T08:37:34.739Z,98606.20
2023-01-30T08:40:03.320Z,98603.97
2023-01-30T08:42:32.624Z,98603.64
2023-01-30T08:45:08.628Z,98602.72
2023-01-30T08:47:38.444Z,98601.34
2023-01-30T08:50:07.336Z,98599.45
2023-01-30T08:52:49.579Z,98590.42
2023-01-30T08:55:19.850Z,98588.81
2023-01-30T08:58:12.535Z,98585.46
2023-01-30T09:00:47.760Z,98580.45
2023-01-30T09:26:08.962Z,98554.43
2023-01-30T09:28:36.127Z,98551.96
2023-01-30T09:31:17.120Z,98544.67
2023-01-30T09:33:45.619Z,98541.77
2023-01-30T09:36:46.800Z,98534.48
2023-01-30T09:39:22.094Z,98531.44
2023-01-30T09:42:03.954Z,98525.61
2023-01-30T09:44:51.982Z,98517.58
2023-01-30T09:51:40.490Z,98517.66
2023-01-30T09:54:15.266Z,98514.66
2023-01-30T09:56:45.022Z,98512.48
2023-01-30T09:59:32.705Z,98505.30
2023-01-30T10:33:45.201Z,98419.27
2023-01-30T10:36:18.249Z,98410.80
2023-01-30T10:38:52.776Z,98402.85
2023-01-30T10:41:34.313Z,98395.20
2023-01-30T10:44:13.262Z,98390.84
2023-01-30T10:47:17.109Z,98387.42
2023-01-30T10:50:17.918Z,98379.14
2023-01-30T10:53:15.437Z,98369.31
2023-01-30T10:55:59.897Z,98362.04
2023-01-30T10:58:46.878Z,98356.77
2023-01-30T11:01:31.201Z,98352.91
2023-01-30T11:04:33.519Z,98346.42
2023-01-30T11:07:01.975Z,98332.66
2023-01-30T11:09:47.031Z,98318.80
2023-01-30T11:12:14.728Z,98310.40
2023-01-30T11:15:01.448Z,98308.67
2023-01-30T11:19:06.658Z,98298.27
2023-01-30T11:21:18.883Z,98288.11
2023-01-30T11:23:47.852Z,98286.11
2023-01-30T11:26:26.136Z,98282.83
2023-01-30T11:28:58.024Z,98287.08
2023-01-30T11:31:40.880Z,98281.02
2023-01-30T11:34:16.100Z,98279.34
2023-01-30T11:36:46.924Z,98274.67
2023-01-30T11:39:16.750Z,98271.59
2023-01-30T11:41:56.044Z,98263.06
2023-01-30T11:44:37.297Z,98255.52
2023-01-30T11:47:09.142Z,98250.20
2023-01-30T11:49:58.826Z,98242.60
2023-01-30T11:52:36.404Z,98234.45
2023-01-30T11:55:12.227Z,98229.88
2023-01-30T11:57:58.274Z,98224.13
2023-01-30T12:00:39.070Z,98215.57
2023-01-30T12:03:12.197Z,98210.90
2023-01-30T12:05:42.032Z,98200.61
2023-01-30T12:08:14.387Z,98192.13
2023-01-30T12:10:44.328Z,98185.77
2023-01-30T12:13:18.564Z,98184.14
2023-01-30T12:15:50.064Z,98172.09
2023-01-30T12:18:44.206Z,98171.98
2023-01-30T12:21:44.682Z,98167.89
2023-01-30T12:24:31.774Z,98161.40
2023-01-30T12:27:11.038Z,98151.81
2023-01-30T12:29:58.253Z,98150.02
2023-01-30T12:32:31.832Z,98139.45
2023-01-30T12:34:59.309Z,98136.14
2023-01-30T12:37:59.820Z,98132.70
2023-01-30T12:40:35.052Z,98128.30
2023-01-30T12:43:43.107Z,98127.45
2023-01-30T12:46:47.541Z,98128.16
2023-01-30T12:49:36.086Z,98128.19
2023-01-30T12:52:44.435Z,98125.42
2023-01-30T12:55:34.100Z,98115.27
2023-01-30T12:58:27.308Z,98121.30
2023-01-30T13:01:14.751Z,98124.41
2023-01-30T13:04:09.318Z,98120.06
2023-01-30T13:07:02.080Z,98124.29
2023-01-30T13:10:03.913Z,98118.90
2023-01-30T13:12:52.972Z,98111.21
2023-01-30T13:15:58.484Z,98110.42
2023-01-30T13:18:42.770Z,98108.26
2023-01-30T13:21:36.657Z,98105.07
2023-01-30T13:24:14.984Z,98101.02
2023-01-30T13:26:43.862Z,98097.81
2023-01-30T13:29:20.306Z,98096.42
2023-01-30T13:31:56.805Z,98093.09
2023-01-30T13:34:34.103Z,98085.23
2023-01-30T13:37:08.521Z,98079.20
2023-01-30T13:40:02.174Z,98073.08
2023-01-30T13:48:37.388Z,98068.84
2023-01-30T13:51:25.361Z,98063.39
2023-01-30T13:54:09.124Z,98059.09
2023-01-30T13:56:43.524Z,98053.89
